Port Clinton, Pennsylvania
Current Conditions -  °F | °C
As of 4:54 AM on Monday 22 Dec 2014 (Local Time) from KRDG Reporting Station
Haze Haze  
Wind Chill: 21°   Ceiling: Unl
Heat Index: 21°   Visibility: 6mi
Dew Point: 17°   Wind: 0mph
Humidity: 85%   Direction: NA
Pressure: 30.29"   Gusts: NA
Location:  40.58°N, 76.02°W
Report Text: KRDG 220954Z AUTO 00000KT 6SM BR SCT022 M06/M08 A3029 RMK AO2 SLP267 T10611083
Loading
Personal Weather Stations






























Interactive Weather Map New forecast layout! Learn more

10-Day Weather Forecast

Advertisements
Track Severe Weather on mobile